createdAt,value
2018-02-21T00:00:46.349Z,4.20
2018-02-21T00:01:46.286Z,4.40
2018-02-21T00:02:46.224Z,4.30
2018-02-21T00:03:46.164Z,4.40
2018-02-21T00:04:46.100Z,4.50
2018-02-21T00:05:46.038Z,4.20
2018-02-21T00:06:45.976Z,4.60
2018-02-21T00:07:45.914Z,4.10
2018-02-21T00:08:45.850Z,4.40
2018-02-21T00:09:45.791Z,4.00
2018-02-21T00:10:45.729Z,4.60
2018-02-21T00:11:45.665Z,3.90
2018-02-21T00:12:45.603Z,4.70
2018-02-21T00:13:45.541Z,4.50
2018-02-21T00:14:45.477Z,4.40
2018-02-21T00:15:45.419Z,4.50
2018-02-21T00:16:45.354Z,4.30
2018-02-21T00:17:45.288Z,4.50
2018-02-21T00:18:45.235Z,4.30
2018-02-21T00:19:45.167Z,4.30
2018-02-21T00:20:45.101Z,4.60
2018-02-21T00:21:45.051Z,4.30
2018-02-21T00:22:44.981Z,4.20
2018-02-21T00:23:44.916Z,4.40
2018-02-21T00:24:44.858Z,4.10
2018-02-21T00:25:44.795Z,4.60
2018-02-21T00:26:44.730Z,4.40
2018-02-21T00:27:44.674Z,4.50
2018-02-21T00:28:44.609Z,4.40
2018-02-21T00:29:44.543Z,4.30
2018-02-21T00:30:44.484Z,4.10
2018-02-21T00:31:44.425Z,4.70
2018-02-21T00:32:44.371Z,4.00
2018-02-21T00:33:44.296Z,4.60
2018-02-21T00:34:44.240Z,4.30
2018-02-21T00:35:44.178Z,4.60
2018-02-21T00:36:44.108Z,4.10
2018-02-21T00:37:44.051Z,4.20
2018-02-21T00:38:43.988Z,4.40
2018-02-21T00:39:43.923Z,4.40
2018-02-21T00:40:43.862Z,4.80
2018-02-21T00:41:43.801Z,4.40
2018-02-21T00:42:43.738Z,4.70
2018-02-21T00:43:43.677Z,4.50
2018-02-21T00:44:43.614Z,4.40
2018-02-21T00:45:43.551Z,4.30
2018-02-21T00:46:43.490Z,4.50
2018-02-21T00:47:43.427Z,4.10
2018-02-21T00:48:43.366Z,4.40
2018-02-21T00:49:43.305Z,4.20
2018-02-21T00:50:43.244Z,4.20
2018-02-21T00:51:43.178Z,4.60
2018-02-21T00:52:43.117Z,4.10
2018-02-21T00:53:43.053Z,4.10
2018-02-21T00:54:42.992Z,4.50
2018-02-21T00:55:42.931Z,4.60
2018-02-21T00:56:42.868Z,4.30
2018-02-21T00:57:42.805Z,4.30
2018-02-21T00:58:42.746Z,4.30
2018-02-21T00:59:42.682Z,4.40
2018-02-21T01:00:42.625Z,4.30
2018-02-21T01:01:42.559Z,4.30
2018-02-21T01:02:42.495Z,4.50
2018-02-21T01:03:42.434Z,4.40
2018-02-21T01:04:42.370Z,4.50
2018-02-21T01:05:42.314Z,4.20
2018-02-21T01:06:42.245Z,4.60
2018-02-21T01:07:42.180Z,4.20
2018-02-21T01:08:42.124Z,4.60
2018-02-21T01:09:42.058Z,4.20
2018-02-21T01:10:41.993Z,4.20
2018-02-21T01:11:41.937Z,4.10
2018-02-21T01:12:41.876Z,4.30
2018-02-21T01:13:41.807Z,4.50
2018-02-21T01:14:41.747Z,4.50
2018-02-21T01:15:41.696Z,4.20
2018-02-21T01:16:41.621Z,4.50
2018-02-21T01:17:41.562Z,4.80
2018-02-21T01:18:41.500Z,4.60
2018-02-21T01:19:41.437Z,4.20
2018-02-21T01:20:41.373Z,4.00
2018-02-21T01:21:41.321Z,4.40
2018-02-21T01:22:41.251Z,4.60
2018-02-21T01:23:41.190Z,4.50
2018-02-21T01:24:41.126Z,4.10
2018-02-21T01:25:41.064Z,4.90
2018-02-21T01:26:41.003Z,4.40
2018-02-21T01:27:40.940Z,4.70
2018-02-21T01:28:40.881Z,4.70
2018-02-21T01:29:40.815Z,4.40
2018-02-21T01:30:40.754Z,4.20
2018-02-21T01:31:40.691Z,4.30
2018-02-21T01:32:40.628Z,4.70
2018-02-21T01:33:40.566Z,4.50
2018-02-21T01:34:40.503Z,4.40
2018-02-21T01:35:40.442Z,4.40
2018-02-21T01:36:40.383Z,4.60
2018-02-21T01:37:40.316Z,4.80
2018-02-21T01:38:40.258Z,4.40
2018-02-21T01:39:40.192Z,4.30
2018-02-21T01:40:40.132Z,4.60
2018-02-21T01:41:40.072Z,4.30
2018-02-21T01:42:40.007Z,4.50
2018-02-21T01:43:39.947Z,4.60
2018-02-21T01:44:39.881Z,4.50
2018-02-21T01:45:39.820Z,4.60
2018-02-21T01:46:39.758Z,4.60
2018-02-21T01:47:39.702Z,4.30
2018-02-21T01:48:39.637Z,4.60
2018-02-21T01:49:39.571Z,4.30
2018-02-21T01:50:39.512Z,4.70
2018-02-21T01:51:39.455Z,4.00
2018-02-21T01:52:39.389Z,4.40
2018-02-21T01:53:39.324Z,4.40
2018-02-21T01:54:39.259Z,4.30
2018-02-21T01:55:39.203Z,4.50
2018-02-21T01:56:39.130Z,4.40
2018-02-21T01:57:39.072Z,4.10
2018-02-21T01:58:39.014Z,4.10
2018-02-21T01:59:38.947Z,4.40
2018-02-21T02:00:38.885Z,4.10
2018-02-21T02:01:38.831Z,4.20
2018-02-21T02:02:38.763Z,4.70
2018-02-21T02:03:38.701Z,4.50
2018-02-21T02:04:38.637Z,4.60
2018-02-21T02:05:38.574Z,4.80
2018-02-21T02:06:38.516Z,4.80
2018-02-21T02:07:38.450Z,4.40
2018-02-21T02:08:38.389Z,4.60
2018-02-21T02:09:38.328Z,4.50
2018-02-21T02:10:38.265Z,4.30
2018-02-21T02:11:38.202Z,4.80
2018-02-21T02:12:38.140Z,4.50
2018-02-21T02:13:38.077Z,4.30
2018-02-21T02:14:38.015Z,4.70
2018-02-21T02:15:37.953Z,4.80
2018-02-21T02:16:37.890Z,4.30
2018-02-21T02:17:37.828Z,4.40
2018-02-21T02:18:37.767Z,4.00
2018-02-21T02:19:37.705Z,4.60
2018-02-21T02:20:37.641Z,4.60
2018-02-21T02:21:37.581Z,4.50
2018-02-21T02:22:37.518Z,4.60
2018-02-21T02:23:37.458Z,4.30
2018-02-21T02:24:37.398Z,4.80
2018-02-21T02:25:37.333Z,4.70
2018-02-21T02:26:37.269Z,4.40
2018-02-21T02:27:37.215Z,4.30
2018-02-21T02:28:37.144Z,4.20
2018-02-21T02:29:37.083Z,4.40
2018-02-21T02:30:37.020Z,4.20
2018-02-21T02:31:36.964Z,4.60
2018-02-21T02:32:36.898Z,4.60
2018-02-21T02:33:36.830Z,4.60
2018-02-21T02:34:36.772Z,4.40
2018-02-21T02:35:36.711Z,4.50
2018-02-21T02:36:36.647Z,4.40
2018-02-21T02:37:36.586Z,4.40
2018-02-21T02:38:36.527Z,4.60
2018-02-21T02:39:36.456Z,4.50
2018-02-21T02:40:36.399Z,4.70
2018-02-21T02:41:36.335Z,4.50
2018-02-21T02:42:36.272Z,4.60
2018-02-21T02:43:36.210Z,4.60
2018-02-21T02:44:36.152Z,4.50
2018-02-21T02:45:36.086Z,4.60
2018-02-21T02:46:36.026Z,4.50
2018-02-21T02:47:35.961Z,4.60
2018-02-21T02:48:35.898Z,4.40
2018-02-21T02:49:35.837Z,4.50
2018-02-21T02:50:35.777Z,4.40
2018-02-21T02:51:35.715Z,4.40
2018-02-21T02:52:35.650Z,4.70
2018-02-21T02:53:35.590Z,4.20
2018-02-21T02:54:35.528Z,4.40
2018-02-21T02:55:35.464Z,4.30
2018-02-21T02:56:35.402Z,4.40
2018-02-21T02:57:35.337Z,4.70
2018-02-21T02:58:35.277Z,4.40
2018-02-21T02:59:35.220Z,4.50
2018-02-21T03:00:35.152Z,4.20
2018-02-21T03:01:35.095Z,4.30
2018-02-21T03:02:35.028Z,4.70
2018-02-21T03:03:34.971Z,4.40
2018-02-21T03:04:34.909Z,4.50
2018-02-21T03:05:34.844Z,4.60
2018-02-21T03:06:34.787Z,4.90
2018-02-21T03:07:34.761Z,4.50
2018-02-21T03:08:34.654Z,4.70
2018-02-21T03:09:34.591Z,4.50
2018-02-21T03:10:34.529Z,4.30
2018-02-21T03:11:34.475Z,4.70
2018-02-21T03:12:34.410Z,4.80
2018-02-21T03:13:34.339Z,4.90
2018-02-21T03:14:34.280Z,4.70
2018-02-21T03:15:34.229Z,4.80
2018-02-21T03:16:34.187Z,4.40
2018-02-21T03:17:34.092Z,4.50
2018-02-21T03:18:34.037Z,4.80
2018-02-21T03:19:33.967Z,4.40
2018-02-21T03:20:33.905Z,4.60
2018-02-21T03:21:33.845Z,4.90
2018-02-21T03:22:33.784Z,4.60
2018-02-21T03:23:33.719Z,4.60
2018-02-21T03:24:33.656Z,4.80
2018-02-21T03:25:33.597Z,4.60
2018-02-21T03:26:33.532Z,4.80
2018-02-21T03:27:33.471Z,4.70
2018-02-21T03:28:33.407Z,4.80
2018-02-21T03:29:33.348Z,4.40
2018-02-21T03:30:33.285Z,4.70
2018-02-21T03:31:33.222Z,4.70
2018-02-21T03:32:33.158Z,4.80
2018-02-21T03:33:33.097Z,4.90
2018-02-21T03:34:33.030Z,4.80
2018-02-21T03:35:32.973Z,4.50
2018-02-21T03:36:32.916Z,4.60
2018-02-21T03:37:32.850Z,4.80
2018-02-21T03:38:32.787Z,4.70
2018-02-21T03:39:32.724Z,4.50
2018-02-21T03:40:32.659Z,4.10
2018-02-21T03:41:32.603Z,4.50
2018-02-21T03:42:32.537Z,4.70
2018-02-21T03:43:32.476Z,4.30
2018-02-21T03:44:32.406Z,4.80
2018-02-21T03:45:32.352Z,4.40
2018-02-21T03:46:32.286Z,4.60
2018-02-21T03:47:32.221Z,4.70
2018-02-21T03:48:32.167Z,4.40
2018-02-21T03:49:32.103Z,4.40
2018-02-21T03:50:32.032Z,4.60
2018-02-21T03:51:31.976Z,4.70
2018-02-21T03:52:31.917Z,4.20
2018-02-21T03:53:31.849Z,4.70
2018-02-21T03:54:31.788Z,4.60
2018-02-21T03:55:31.725Z,4.60
2018-02-21T03:56:31.661Z,4.50
2018-02-21T03:57:31.600Z,4.70
2018-02-21T03:58:31.548Z,4.80
2018-02-21T03:59:31.475Z,4.50
2018-02-21T04:00:31.413Z,4.40
2018-02-21T04:01:31.351Z,5.00
2018-02-21T04:02:31.289Z,4.30
2018-02-21T04:03:31.228Z,4.80
2018-02-21T04:04:31.167Z,5.00
2018-02-21T04:05:31.102Z,4.70
2018-02-21T04:06:31.040Z,4.80
2018-02-21T04:07:30.979Z,4.70
2018-02-21T04:08:30.917Z,5.10
2018-02-21T04:09:30.854Z,4.80
2018-02-21T04:10:30.793Z,4.50
2018-02-21T04:11:30.730Z,4.60
2018-02-21T04:12:30.667Z,4.60
2018-02-21T04:13:30.604Z,4.80
2018-02-21T04:14:30.542Z,4.40
2018-02-21T04:15:30.482Z,4.90
2018-02-21T04:16:30.417Z,4.60
2018-02-21T04:17:30.356Z,5.00
2018-02-21T04:18:30.349Z,4.80
2018-02-21T04:19:30.230Z,4.70
2018-02-21T04:20:30.163Z,4.70
2018-02-21T04:21:30.104Z,4.90
2018-02-21T04:22:30.046Z,4.90
2018-02-21T04:23:29.979Z,4.90
2018-02-21T04:24:29.914Z,4.80
2018-02-21T04:25:29.856Z,4.60
2018-02-21T04:26:29.799Z,5.00
2018-02-21T04:27:29.728Z,5.60
2018-02-21T04:28:29.669Z,4.70
2018-02-21T04:29:29.611Z,4.50
2018-02-21T04:30:29.542Z,5.10
2018-02-21T04:31:29.483Z,4.70
2018-02-21T04:32:29.424Z,5.00
2018-02-21T04:33:29.355Z,4.60
2018-02-21T04:34:29.293Z,4.90
2018-02-21T04:35:29.233Z,4.60
2018-02-21T04:36:29.170Z,4.70
2018-02-21T04:37:29.107Z,4.80
2018-02-21T04:38:29.045Z,5.00
2018-02-21T04:39:28.981Z,4.90
2018-02-21T04:40:28.920Z,4.80
2018-02-21T04:41:28.854Z,4.70
2018-02-21T04:42:28.795Z,5.30
2018-02-21T04:43:28.734Z,4.60
2018-02-21T04:44:28.670Z,4.90
2018-02-21T04:45:28.608Z,4.80
2018-02-21T04:46:28.546Z,5.20
2018-02-21T04:47:28.484Z,4.80
2018-02-21T04:48:28.420Z,4.70
2018-02-21T04:49:28.361Z,4.90
2018-02-21T04:50:28.296Z,4.80
2018-02-21T04:51:28.242Z,5.40
2018-02-21T04:52:28.178Z,5.10
2018-02-21T04:53:28.109Z,4.90
2018-02-21T04:54:28.047Z,4.90
2018-02-21T04:55:27.982Z,4.90
2018-02-21T04:56:27.926Z,5.00
2018-02-21T04:57:27.857Z,5.20
2018-02-21T04:58:27.792Z,5.00
2018-02-21T04:59:27.741Z,4.90
2018-02-21T05:00:27.673Z,5.40
2018-02-21T05:01:27.608Z,4.90
2018-02-21T05:02:27.549Z,4.90
2018-02-21T05:03:27.487Z,5.50
2018-02-21T05:04:27.421Z,4.90
2018-02-21T05:05:27.359Z,5.10
2018-02-21T05:06:27.314Z,5.00
2018-02-21T05:07:27.234Z,5.10
2018-02-21T05:08:27.173Z,4.90
2018-02-21T05:09:27.112Z,5.20
2018-02-21T05:10:27.046Z,4.90
2018-02-21T05:11:26.986Z,5.10
2018-02-21T05:12:26.922Z,4.90
2018-02-21T05:13:26.860Z,5.20
2018-02-21T05:14:26.799Z,4.80
2018-02-21T05:15:26.738Z,5.00
2018-02-21T05:16:26.672Z,4.90
2018-02-21T05:17:26.611Z,5.50
2018-02-21T05:18:26.550Z,5.00
2018-02-21T05:19:26.487Z,5.00
2018-02-21T05:20:26.425Z,5.20
2018-02-21T05:21:26.371Z,4.90
2018-02-21T05:22:26.297Z,4.90
2018-02-21T05:23:26.239Z,5.20
2018-02-21T05:24:26.177Z,4.90
2018-02-21T05:25:26.112Z,5.10
2018-02-21T05:26:26.049Z,4.90
2018-02-21T05:27:25.991Z,5.00
2018-02-21T05:28:25.933Z,5.00
2018-02-21T05:29:25.862Z,5.20
2018-02-21T05:30:25.798Z,5.00
2018-02-21T05:31:25.742Z,5.00
2018-02-21T05:32:25.669Z,5.30
2018-02-21T05:33:25.612Z,5.10
2018-02-21T05:34:25.552Z,5.50
2018-02-21T05:35:25.485Z,4.90
2018-02-21T05:36:25.424Z,5.00
2018-02-21T05:37:25.375Z,5.10
2018-02-21T05:38:25.298Z,5.50
2018-02-21T05:39:25.237Z,5.00
2018-02-21T05:40:25.228Z,4.80
2018-02-21T05:41:25.111Z,5.10
2018-02-21T05:42:25.053Z,5.30
2018-02-21T05:43:24.988Z,5.20
2018-02-21T05:44:24.924Z,5.20
2018-02-21T05:45:24.862Z,5.30
2018-02-21T05:46:24.805Z,5.10
2018-02-21T05:47:24.738Z,5.20
2018-02-21T05:48:24.672Z,5.20
2018-02-21T05:49:24.611Z,5.30
2018-02-21T05:50:24.550Z,5.00
2018-02-21T05:51:24.489Z,4.80
2018-02-21T05:52:24.425Z,5.50
2018-02-21T05:53:24.364Z,4.90
2018-02-21T05:54:24.310Z,5.20
2018-02-21T05:55:24.241Z,5.50
2018-02-21T05:56:24.174Z,5.00
2018-02-21T05:57:24.108Z,5.10
2018-02-21T05:58:24.054Z,5.30
2018-02-21T05:59:23.990Z,5.30
2018-02-21T06:00:23.924Z,5.10
2018-02-21T06:01:23.862Z,5.10
2018-02-21T06:02:23.799Z,4.90
2018-02-21T06:03:23.736Z,5.10
2018-02-21T06:04:23.676Z,4.90
2018-02-21T06:05:23.618Z,4.70
2018-02-21T06:06:23.548Z,5.20
2018-02-21T06:07:23.490Z,5.10
2018-02-21T06:08:23.436Z,4.70
2018-02-21T06:09:23.364Z,4.60
2018-02-21T06:10:23.306Z,4.80
2018-02-21T06:11:23.265Z,5.10
2018-02-21T06:12:23.211Z,4.60
2018-02-21T06:13:23.140Z,4.40
2018-02-21T06:14:23.065Z,4.90
2018-02-21T06:15:23.161Z,4.70
2018-02-21T06:16:22.948Z,5.00
2018-02-21T06:17:22.889Z,4.80
2018-02-21T06:18:22.831Z,4.80
2018-02-21T06:19:22.771Z,4.70
2018-02-21T06:20:22.713Z,5.20
2018-02-21T06:21:22.650Z,4.70
2018-02-21T06:22:22.593Z,4.90
2018-02-21T06:23:22.539Z,4.90
2018-02-21T06:24:22.480Z,4.90
2018-02-21T06:25:22.429Z,4.90
2018-02-21T06:26:22.367Z,4.90
2018-02-21T06:27:22.312Z,4.70
2018-02-21T06:28:22.253Z,5.00
2018-02-21T06:29:22.203Z,4.80
2018-02-21T06:30:22.149Z,4.90
2018-02-21T06:31:22.085Z,5.10
2018-02-21T06:32:22.038Z,5.20
2018-02-21T06:33:21.974Z,5.10
2018-02-21T06:34:21.918Z,4.90
2018-02-21T06:35:21.863Z,5.20
2018-02-21T06:36:21.807Z,5.20
2018-02-21T06:37:21.753Z,5.20
2018-02-21T06:38:21.698Z,5.00
2018-02-21T06:39:21.643Z,4.90
2018-02-21T06:40:21.589Z,4.90
2018-02-21T06:41:21.533Z,5.00
2018-02-21T06:42:21.479Z,5.10
2018-02-21T06:43:21.426Z,5.20
2018-02-21T06:44:21.370Z,5.40
2018-02-21T06:45:21.317Z,5.00
2018-02-21T06:46:21.261Z,5.20
2018-02-21T06:47:21.222Z,5.20
2018-02-21T06:48:21.154Z,4.90
2018-02-21T06:49:21.102Z,5.60
2018-02-21T06:50:21.046Z,5.50
2018-02-21T06:51:20.993Z,5.30
2018-02-21T06:52:20.939Z,5.50
2018-02-21T06:53:20.885Z,5.40
2018-02-21T06:54:20.834Z,5.50
2018-02-21T06:55:20.778Z,5.20
2018-02-21T06:56:20.719Z,5.60
2018-02-21T06:57:20.670Z,5.60
2018-02-21T06:58:20.618Z,5.50
2018-02-21T06:59:20.565Z,5.40
2018-02-21T07:00:20.509Z,5.80
2018-02-21T07:01:20.457Z,5.80
2018-02-21T07:02:20.415Z,5.50
2018-02-21T07:03:20.351Z,5.70
2018-02-21T07:04:20.319Z,5.80
2018-02-21T07:05:20.243Z,5.70
2018-02-21T07:06:20.192Z,6.10
2018-02-21T07:07:20.138Z,6.00
2018-02-21T07:08:20.083Z,5.80
2018-02-21T07:09:20.031Z,5.70
2018-02-21T07:10:19.979Z,5.90
2018-02-21T07:11:19.927Z,6.20
2018-02-21T07:12:19.873Z,5.90
2018-02-21T07:13:19.820Z,5.80
2018-02-21T07:14:19.767Z,5.60
2018-02-21T07:15:19.778Z,6.10
2018-02-21T07:16:19.662Z,5.90
2018-02-21T07:17:19.613Z,6.10
2018-02-21T07:18:19.559Z,6.10
2018-02-21T07:19:19.505Z,6.10
2018-02-21T07:20:19.451Z,6.10
2018-02-21T07:21:19.398Z,5.60
2018-02-21T07:22:19.346Z,5.60
2018-02-21T07:23:19.293Z,6.00
2018-02-21T07:24:19.244Z,6.10
2018-02-21T07:25:19.183Z,6.20
2018-02-21T07:26:19.135Z,6.00
2018-02-21T07:27:19.083Z,6.20
2018-02-21T07:28:19.030Z,6.50
2018-02-21T07:29:18.978Z,5.70
2018-02-21T07:30:18.927Z,5.90
2018-02-21T07:31:18.876Z,5.90
2018-02-21T07:32:18.816Z,6.10
2018-02-21T07:33:18.768Z,6.30
2018-02-21T07:34:18.715Z,5.90
2018-02-21T07:35:18.664Z,6.30
2018-02-21T07:36:18.621Z,6.20
2018-02-21T07:37:18.566Z,5.90
2018-02-21T07:38:18.509Z,6.20
2018-02-21T07:39:18.453Z,6.40
2018-02-21T07:40:18.408Z,6.20
2018-02-21T07:41:18.351Z,6.30
2018-02-21T07:42:18.299Z,6.50
2018-02-21T07:43:18.252Z,6.50
2018-02-21T07:44:18.189Z,6.20
2018-02-21T07:45:18.142Z,6.50
2018-02-21T07:46:18.089Z,6.60
2018-02-21T07:47:18.037Z,6.20
2018-02-21T07:48:17.985Z,6.60
2018-02-21T07:49:17.931Z,5.90
2018-02-21T07:50:17.888Z,6.80
2018-02-21T07:51:17.830Z,6.50
2018-02-21T07:52:17.778Z,6.20
2018-02-21T07:53:17.725Z,6.70
2018-02-21T07:54:17.693Z,6.90
2018-02-21T07:55:17.635Z,6.40
2018-02-21T07:56:17.574Z,6.20
2018-02-21T07:57:17.517Z,6.20
2018-02-21T07:58:17.466Z,6.50
2018-02-21T07:59:17.414Z,6.30
2018-02-21T08:00:17.363Z,6.50
2018-02-21T08:01:17.312Z,6.50
2018-02-21T08:02:17.261Z,6.30
2018-02-21T08:03:17.208Z,6.60
2018-02-21T08:04:17.155Z,6.80
2018-02-21T08:05:17.100Z,6.40
2018-02-21T08:06:17.052Z,6.60
2018-02-21T08:07:17.001Z,6.60
2018-02-21T08:08:16.954Z,6.20
2018-02-21T08:09:16.897Z,6.50
2018-02-21T08:10:16.847Z,6.60
2018-02-21T08:11:16.801Z,6.50
2018-02-21T08:12:16.741Z,6.60
2018-02-21T08:13:16.692Z,6.50
2018-02-21T08:14:16.640Z,6.70
2018-02-21T08:15:16.589Z,6.70
2018-02-21T08:16:16.538Z,6.70
2018-02-21T08:17:16.485Z,6.70
2018-02-21T08:18:16.446Z,6.70
2018-02-21T08:19:16.378Z,6.60
2018-02-21T08:20:16.334Z,6.70
2018-02-21T08:21:16.281Z,6.20
2018-02-21T08:22:16.228Z,6.50
2018-02-21T08:23:16.180Z,6.80
2018-02-21T08:24:16.127Z,6.90
2018-02-21T08:25:16.080Z,6.80
2018-02-21T08:26:16.019Z,6.80
2018-02-21T08:27:15.972Z,6.70
2018-02-21T08:28:15.952Z,6.70
2018-02-21T08:29:15.869Z,6.90
2018-02-21T08:30:15.819Z,6.60
2018-02-21T08:31:15.765Z,6.60
2018-02-21T08:32:15.714Z,6.90
2018-02-21T08:33:15.665Z,6.80
2018-02-21T08:34:15.613Z,6.70
2018-02-21T08:35:15.560Z,6.90
2018-02-21T08:36:15.510Z,7.20
2018-02-21T08:37:15.458Z,6.60
2018-02-21T08:38:15.407Z,6.80
2018-02-21T08:39:15.359Z,7.00
2018-02-21T08:40:15.300Z,7.10
2018-02-21T08:41:15.252Z,6.60
2018-02-21T08:42:15.203Z,7.30
2018-02-21T08:43:15.160Z,7.00
2018-02-21T08:44:15.098Z,6.80
2018-02-21T08:45:15.049Z,7.00
2018-02-21T08:46:14.998Z,7.60
2018-02-21T08:47:14.946Z,7.30
2018-02-21T08:48:14.895Z,7.10
2018-02-21T08:49:14.847Z,7.30
2018-02-21T08:50:14.811Z,7.30
2018-02-21T08:51:14.740Z,7.40
2018-02-21T08:52:14.690Z,7.40
2018-02-21T08:53:14.640Z,7.60
2018-02-21T08:54:14.595Z,7.70
2018-02-21T08:55:14.539Z,7.30
2018-02-21T08:56:14.486Z,7.50
2018-02-21T08:57:14.433Z,7.70
2018-02-21T08:58:14.386Z,7.70
2018-02-21T08:59:14.331Z,7.50
2018-02-21T09:00:14.280Z,7.90
2018-02-21T09:01:14.229Z,7.70
2018-02-21T09:02:14.190Z,7.80
2018-02-21T09:03:14.127Z,7.70
2018-02-21T09:04:14.075Z,8.10
2018-02-21T09:05:14.024Z,7.80
2018-02-21T09:06:13.973Z,7.90
2018-02-21T09:07:13.926Z,7.90
2018-02-21T09:08:13.870Z,8.40
2018-02-21T09:09:13.822Z,8.10
2018-02-21T09:10:13.776Z,7.80
2018-02-21T09:11:13.717Z,7.70
2018-02-21T09:12:13.667Z,8.00
2018-02-21T09:13:13.615Z,7.90
2018-02-21T09:14:13.564Z,7.90
2018-02-21T09:15:13.512Z,8.30
2018-02-21T09:16:13.463Z,8.40
2018-02-21T09:17:13.414Z,7.80
2018-02-21T09:18:13.360Z,8.10
2018-02-21T09:19:13.306Z,7.90
2018-02-21T09:20:13.259Z,8.10
2018-02-21T09:21:13.206Z,8.40
2018-02-21T09:22:13.155Z,7.80
2018-02-21T09:23:13.103Z,8.10
2018-02-21T09:24:13.052Z,8.10
2018-02-21T09:25:13.000Z,8.10
2018-02-21T09:26:12.947Z,8.20
2018-02-21T09:27:12.897Z,8.70
2018-02-21T09:28:12.848Z,8.00
2018-02-21T09:29:12.806Z,8.00
2018-02-21T09:30:12.742Z,8.40
2018-02-21T09:31:12.704Z,8.40
2018-02-21T09:32:12.641Z,8.10
2018-02-21T09:33:12.589Z,8.60
2018-02-21T09:34:12.539Z,7.90
2018-02-21T09:35:12.490Z,8.20
2018-02-21T09:36:12.440Z,8.10
2018-02-21T09:37:12.383Z,8.00
2018-02-21T09:38:12.335Z,8.70
2018-02-21T09:39:12.295Z,8.50
2018-02-21T09:40:12.227Z,8.50
2018-02-21T09:41:12.180Z,8.60
2018-02-21T09:42:12.131Z,8.20
2018-02-21T09:43:12.102Z,7.90
2018-02-21T09:44:12.029Z,8.30
2018-02-21T09:45:11.977Z,8.40
2018-02-21T09:46:11.947Z,8.30
2018-02-21T09:47:11.882Z,8.70
2018-02-21T09:48:11.823Z,8.10
2018-02-21T09:49:11.772Z,8.60
2018-02-21T09:50:11.727Z,8.50
2018-02-21T09:51:11.672Z,8.40
2018-02-21T09:52:11.620Z,8.20
2018-02-21T09:53:11.580Z,8.50
2018-02-21T09:54:11.518Z,8.10
2018-02-21T09:55:11.467Z,8.40
2018-02-21T09:56:11.411Z,8.40
2018-02-21T09:57:11.363Z,8.30
2018-02-21T09:58:11.319Z,8.80
2018-02-21T09:59:11.266Z,8.50
2018-02-21T10:00:11.208Z,9.30
2018-02-21T10:01:11.159Z,8.30
2018-02-21T10:02:11.107Z,8.20
2018-02-21T10:03:11.056Z,8.60
2018-02-21T10:04:11.005Z,8.50
2018-02-21T10:05:10.954Z,8.20
2018-02-21T10:06:10.903Z,8.50
2018-02-21T10:07:10.852Z,8.20
2018-02-21T10:08:10.800Z,8.40
2018-02-21T10:09:10.762Z,9.30
2018-02-21T10:10:10.698Z,8.70
2018-02-21T10:11:10.647Z,8.50
2018-02-21T10:12:10.600Z,8.80
2018-02-21T10:13:10.553Z,8.30
2018-02-21T10:14:10.493Z,9.30
2018-02-21T10:15:10.464Z,8.70
2018-02-21T10:16:10.397Z,8.70
2018-02-21T10:17:10.346Z,8.70
2018-02-21T10:18:10.288Z,8.50
2018-02-21T10:19:10.241Z,8.40
2018-02-21T10:20:10.196Z,8.80
2018-02-21T10:21:10.135Z,9.30
2018-02-21T10:22:10.085Z,9.30
2018-02-21T10:23:10.037Z,9.00
2018-02-21T10:24:09.987Z,9.40
2018-02-21T10:25:09.932Z,9.40
2018-02-21T10:26:09.876Z,9.30
2018-02-21T10:27:09.828Z,9.10
2018-02-21T10:28:09.778Z,8.90
2018-02-21T10:29:09.727Z,9.20
2018-02-21T10:30:09.674Z,9.10
2018-02-21T10:31:09.625Z,9.20
2018-02-21T10:32:09.572Z,9.80
2018-02-21T10:33:09.517Z,10.00
2018-02-21T10:34:09.473Z,9.70
2018-02-21T10:35:09.421Z,9.40
2018-02-21T10:36:09.368Z,9.60
2018-02-21T10:37:09.316Z,9.60
2018-02-21T10:38:09.266Z,9.30
2018-02-21T10:39:09.220Z,9.90
2018-02-21T10:40:09.164Z,9.90
2018-02-21T10:41:09.115Z,10.00
2018-02-21T10:42:09.061Z,9.90
2018-02-21T10:43:09.020Z,9.90
2018-02-21T10:44:08.961Z,9.70
2018-02-21T10:45:08.911Z,10.40
2018-02-21T10:46:08.868Z,10.10
2018-02-21T10:47:08.815Z,9.60
2018-02-21T10:48:08.755Z,9.70
2018-02-21T10:49:08.702Z,10.20
2018-02-21T10:50:08.655Z,10.00
2018-02-21T10:51:08.606Z,9.40
2018-02-21T10:52:08.549Z,9.80
2018-02-21T10:53:08.508Z,9.60
2018-02-21T10:54:08.453Z,9.80
2018-02-21T10:55:08.396Z,10.40
2018-02-21T10:56:08.342Z,9.90
2018-02-21T10:57:08.297Z,10.20
2018-02-21T10:58:08.241Z,9.70
2018-02-21T10:59:08.195Z,10.70
2018-02-21T11:00:08.144Z,9.90
2018-02-21T11:01:08.090Z,10.20
2018-02-21T11:02:08.035Z,10.70
2018-02-21T11:03:07.981Z,10.10
2018-02-21T11:04:07.933Z,9.80
2018-02-21T11:05:07.880Z,9.80
2018-02-21T11:06:07.827Z,10.50
2018-02-21T11:07:07.797Z,10.10
2018-02-21T11:08:07.727Z,10.90
2018-02-21T11:09:07.673Z,9.80
2018-02-21T11:10:07.618Z,10.40
2018-02-21T11:11:07.597Z,9.90
2018-02-21T11:12:07.515Z,10.50
2018-02-21T11:13:07.466Z,10.40
2018-02-21T11:14:07.416Z,10.10
2018-02-21T11:15:07.366Z,10.60
2018-02-21T11:16:07.306Z,10.10
2018-02-21T11:17:07.254Z,10.20
2018-02-21T11:18:07.201Z,10.40
2018-02-21T11:19:07.151Z,10.50
2018-02-21T11:20:07.097Z,10.30
2018-02-21T11:21:07.044Z,10.30
2018-02-21T11:22:06.993Z,10.70
2018-02-21T11:23:06.940Z,10.50
2018-02-21T11:24:06.887Z,9.80
2018-02-21T11:25:06.832Z,9.90
2018-02-21T11:26:06.779Z,10.30
2018-02-21T11:27:06.733Z,10.80
2018-02-21T11:28:06.675Z,10.80
2018-02-21T11:29:06.622Z,10.40
2018-02-21T11:30:06.574Z,10.60
2018-02-21T11:31:06.515Z,10.60
2018-02-21T11:32:06.466Z,10.70
2018-02-21T11:33:06.410Z,11.30
2018-02-21T11:34:06.359Z,11.30
2018-02-21T11:35:06.305Z,10.50
2018-02-21T11:36:06.250Z,10.90
2018-02-21T11:37:06.197Z,9.90
2018-02-21T11:38:06.144Z,11.00
2018-02-21T11:39:06.092Z,11.10
2018-02-21T11:40:06.031Z,11.10
2018-02-21T11:41:05.985Z,11.10
2018-02-21T11:42:05.930Z,11.20
2018-02-21T11:43:05.881Z,10.90
2018-02-21T11:44:05.822Z,11.60
2018-02-21T11:45:05.768Z,11.20
2018-02-21T11:46:05.717Z,11.00
2018-02-21T11:47:05.667Z,11.60
2018-02-21T11:48:05.607Z,11.40
2018-02-21T11:49:05.557Z,11.20
2018-02-21T11:50:05.500Z,11.50
2018-02-21T11:51:05.448Z,11.40
2018-02-21T11:52:05.392Z,11.10
2018-02-21T11:53:05.340Z,11.10
2018-02-21T11:54:05.287Z,10.90
2018-02-21T11:55:05.238Z,11.60
2018-02-21T11:56:05.181Z,10.60
2018-02-21T11:57:05.126Z,11.70
2018-02-21T11:58:05.077Z,11.80
2018-02-21T11:59:05.019Z,11.30
2018-02-21T12:00:04.972Z,11.30
2018-02-21T12:01:04.915Z,11.90
2018-02-21T12:02:04.861Z,11.30
2018-02-21T12:03:04.806Z,11.50
2018-02-21T12:04:04.749Z,11.40
2018-02-21T12:05:04.698Z,11.50
2018-02-21T12:06:04.646Z,11.40
2018-02-21T12:07:04.592Z,11.90
2018-02-21T12:08:04.536Z,11.80
2018-02-21T12:09:04.484Z,12.10
2018-02-21T12:10:04.436Z,12.90
2018-02-21T12:11:04.380Z,11.50
2018-02-21T12:12:04.326Z,11.70
2018-02-21T12:13:04.359Z,12.20
2018-02-21T12:14:04.224Z,12.40
2018-02-21T12:15:04.171Z,12.40
2018-02-21T12:16:04.166Z,11.70
2018-02-21T12:17:04.061Z,12.00
2018-02-21T12:18:04.014Z,12.10
2018-02-21T12:19:03.956Z,11.90
2018-02-21T12:20:03.902Z,12.70
2018-02-21T12:21:03.855Z,12.40
2018-02-21T12:22:03.797Z,12.70
2018-02-21T12:23:03.744Z,12.60
2018-02-21T12:24:03.697Z,11.70
2018-02-21T12:25:03.639Z,12.90
2018-02-21T12:26:03.586Z,12.20
2018-02-21T12:27:03.533Z,12.60
2018-02-21T12:28:03.479Z,12.30
2018-02-21T12:29:03.428Z,12.00
2018-02-21T12:30:03.373Z,12.70
2018-02-21T12:31:03.321Z,12.10
2018-02-21T12:32:03.266Z,11.70
2018-02-21T12:33:03.216Z,11.50
2018-02-21T12:34:03.161Z,12.00
2018-02-21T12:35:03.112Z,12.00
2018-02-21T12:36:03.055Z,12.10
2018-02-21T12:37:02.997Z,11.90
2018-02-21T12:38:02.948Z,12.10
2018-02-21T12:39:02.898Z,12.60
2018-02-21T12:40:02.843Z,12.30
2018-02-21T12:41:02.789Z,12.30
2018-02-21T12:42:02.736Z,12.10
2018-02-21T12:43:02.684Z,12.80
2018-02-21T12:44:02.628Z,12.80
2018-02-21T12:45:02.576Z,12.40
2018-02-21T12:46:02.530Z,12.10
2018-02-21T12:47:02.470Z,11.80
2018-02-21T12:48:02.414Z,12.00
2018-02-21T12:49:02.360Z,12.30
2018-02-21T12:50:02.311Z,12.00
2018-02-21T12:51:02.260Z,12.20
2018-02-21T12:52:02.199Z,12.50
2018-02-21T12:53:02.147Z,12.00
2018-02-21T12:54:02.095Z,12.30
2018-02-21T12:55:02.045Z,13.10
2018-02-21T12:56:01.987Z,12.30
2018-02-21T12:57:01.932Z,12.60
2018-02-21T12:58:01.879Z,12.50
2018-02-21T12:59:01.821Z,12.60
2018-02-21T13:00:01.771Z,12.40
2018-02-21T13:01:01.717Z,12.90
2018-02-21T13:02:01.667Z,12.60
2018-02-21T13:03:01.621Z,12.50
2018-02-21T13:04:01.554Z,12.80
2018-02-21T13:05:01.505Z,13.00
2018-02-21T13:06:01.451Z,13.40
2018-02-21T13:07:01.392Z,12.50
2018-02-21T13:08:01.353Z,12.60
2018-02-21T13:09:01.278Z,13.00
2018-02-21T13:10:01.231Z,13.50
2018-02-21T13:11:01.190Z,13.20
2018-02-21T13:12:01.125Z,13.20
2018-02-21T13:13:01.069Z,12.90